Bath, Illinois
Current Conditions -  °F | °C
As of 12:55 PM on Friday 24 Oct 2014 (Local Time) from KIJX Reporting Station
Clear Clear  
Wind Chill: 20°   Ceiling: Unl
Heat Index: 20°   Visibility: 10mi
Dew Point: 14°   Wind: 5mph
Humidity: 69%   Direction: 210°SSW
Pressure: 30.08"   Gusts: NA
Location:  40.19°N, 90.14°W
Report Text: KIJX 241755Z AUTO 21004KT 10SM CLR 20/14 A3008 RMK AO2 T01950137 10195 20131
Loading
Personal Weather Stations






























Interactive Weather Map
Tropical Storm Tracking
New forecast layout! Learn more

10-Day Weather Forecast

Advertisements
Track Severe Weather on mobile